sensor_id;sensor_type;location;lat;lon;timestamp;pressure;altitude;pressure_sealevel;temperature;humidity
14253;BME280;7210;51.502;10.722;2023-01-27T00:01:15;100156.69;;;0.78;100.00
14253;BME280;7210;51.502;10.722;2023-01-27T00:03:42;100157.34;;;0.80;100.00
14253;BME280;7210;51.502;10.722;2023-01-27T00:06:09;100159.13;;;0.80;100.00
14253;BME280;7210;51.502;10.722;2023-01-27T00:08:41;100153.78;;;0.81;100.00
14253;BME280;7210;51.502;10.722;2023-01-27T00:11:10;100142.88;;;0.78;100.00
14253;BME280;7210;51.502;10.722;2023-01-27T00:14:05;100147.25;;;0.77;100.00
14253;BME280;7210;51.502;10.722;2023-01-27T00:16:32;100148.06;;;0.78;100.00
14253;BME280;7210;51.502;10.722;2023-01-27T00:18:59;100146.25;;;0.78;100.00
14253;BME280;7210;51.502;10.722;2023-01-27T00:21:27;100138.59;;;0.77;100.00
14253;BME280;7210;51.502;10.722;2023-01-27T00:24:12;100140.03;;;0.71;100.00
14253;BME280;7210;51.502;10.722;2023-01-27T00:26:58;100128.66;;;0.72;100.00
14253;BME280;7210;51.502;10.722;2023-01-27T00:29:25;100134.16;;;0.69;100.00
14253;BME280;7210;51.502;10.722;2023-01-27T00:31:52;100134.81;;;0.71;100.00
14253;BME280;7210;51.502;10.722;2023-01-27T00:34:47;100131.44;;;0.71;100.00
14253;BME280;7210;51.502;10.722;2023-01-27T00:37:14;100140.03;;;0.71;100.00
14253;BME280;7210;51.502;10.722;2023-01-27T00:39:41;100134.81;;;0.71;100.00
14253;BME280;7210;51.502;10.722;2023-01-27T00:42:10;100124.59;;;0.70;100.00
14253;BME280;7210;51.502;10.722;2023-01-27T00:44:38;100130.59;;;0.70;100.00
14253;BME280;7210;51.502;10.722;2023-01-27T00:47:25;100128.13;;;0.69;100.00
14253;BME280;7210;51.502;10.722;2023-01-27T00:49:52;100128.97;;;0.69;100.00
14253;BME280;7210;51.502;10.722;2023-01-27T00:52:24;100135.78;;;0.70;100.00
14253;BME280;7210;51.502;10.722;2023-01-27T00:54:53;100128.44;;;0.66;100.00
14253;BME280;7210;51.502;10.722;2023-01-27T00:57:30;100137.75;;;0.68;100.00
14253;BME280;7210;51.502;10.722;2023-01-27T00:59:58;100137.94;;;0.75;100.00
14253;BME280;7210;51.502;10.722;2023-01-27T01:02:29;100139.56;;;0.76;100.00
14253;BME280;7210;51.502;10.722;2023-01-27T01:04:56;100145.59;;;0.76;100.00
14253;BME280;7210;51.502;10.722;2023-01-27T01:07:29;100146.59;;;0.75;100.00
14253;BME280;7210;51.502;10.722;2023-01-27T01:09:56;100148.34;;;0.75;100.00
14253;BME280;7210;51.502;10.722;2023-01-27T01:12:31;100149.97;;;0.76;100.00
14253;BME280;7210;51.502;10.722;2023-01-27T01:14:58;100147.25;;;0.77;100.00
14253;BME280;7210;51.502;10.722;2023-01-27T01:17:25;100146.13;;;0.80;100.00
14253;BME280;7210;51.502;10.722;2023-01-27T01:19:53;100148.88;;;0.78;100.00
14253;BME280;7210;51.502;10.722;2023-01-27T01:22:23;100148.34;;;0.75;100.00
14253;BME280;7210;51.502;10.722;2023-01-27T01:24:53;100145.59;;;0.76;100.00
14253;BME280;7210;51.502;10.722;2023-01-27T01:27:20;100146.94;;;0.80;100.00
14253;BME280;7210;51.502;10.722;2023-01-27T01:29:49;100154.06;;;0.78;100.00
14253;BME280;7210;51.502;10.722;2023-01-27T01:32:16;100157.34;;;0.80;100.00
14253;BME280;7210;51.502;10.722;2023-01-27T01:34:43;100160.91;;;0.79;100.00
14253;BME280;7210;51.502;10.722;2023-01-27T01:37:11;100155.88;;;0.78;100.00
14253;BME280;7210;51.502;10.722;2023-01-27T01:39:41;100158.69;;;0.84;100.00
14253;BME280;7210;51.502;10.722;2023-01-27T01:42:08;100156.06;;;0.84;100.00
14253;BME280;7210;51.502;10.722;2023-01-27T01:44:35;100146.94;;;0.80;100.00
14253;BME280;7210;51.502;10.722;2023-01-27T01:47:04;100150.50;;;0.79;100.00
14253;BME280;7210;51.502;10.722;2023-01-27T01:49:43;100144.63;;;0.77;100.00
14253;BME280;7210;51.502;10.722;2023-01-27T01:52:23;100139.38;;;0.69;100.00
14253;BME280;7210;51.502;10.722;2023-01-27T01:54:55;100151.63;;;0.77;100.00
14253;BME280;7210;51.502;10.722;2023-01-27T01:57:29;100156.00;;;0.76;100.00
14253;BME280;7210;51.502;10.722;2023-01-27T02:00:03;100152.44;;;0.77;100.00
14253;BME280;7210;51.502;10.722;2023-01-27T02:02:42;100159.41;;;0.77;100.00
14253;BME280;7210;51.502;10.722;2023-01-27T02:05:15;100156.00;;;0.76;100.00
14253;BME280;7210;51.502;10.722;2023-01-27T02:07:50;100156.81;;;0.77;100.00
14253;BME280;7210;51.502;10.722;2023-01-27T02:10:24;100164.19;;;0.81;100.00
14253;BME280;7210;51.502;10.722;2023-01-27T02:12:53;100160.63;;;0.82;100.00
14253;BME280;7210;51.502;10.722;2023-01-27T02:15:20;100165.19;;;0.88;100.00
14253;BME280;7210;51.502;10.722;2023-01-27T02:17:49;100157.56;;;0.87;100.00
14253;BME280;7210;51.502;10.722;2023-01-27T02:20:25;100160.00;;;0.88;100.00
14253;BME280;7210;51.502;10.722;2023-01-27T02:23:17;100169.53;;;0.97;100.00
14253;BME280;7210;51.502;10.722;2023-01-27T02:25:53;100155.53;;;0.98;100.00
14253;BME280;7210;51.502;10.722;2023-01-27T02:28:26;100162.66;;;0.96;100.00
14253;BME280;7210;51.502;10.722;2023-01-27T02:30:59;100150.94;;;0.92;100.00
14253;BME280;7210;51.502;10.722;2023-01-27T02:33:27;100152.88;;;0.90;100.00
14253;BME280;7210;51.502;10.722;2023-01-27T02:36:01;100154.00;;;0.88;100.00
14253;BME280;7210;51.502;10.722;2023-01-27T02:38:34;100145.53;;;0.86;100.00
14253;BME280;7210;51.502;10.722;2023-01-27T02:41:08;100151.53;;;0.86;100.00
14253;BME280;7210;51.502;10.722;2023-01-27T02:43:48;100146.19;;;0.88;100.00
14253;BME280;7210;51.502;10.722;2023-01-27T02:46:15;100151.53;;;0.86;100.00
14253;BME280;7210;51.502;10.722;2023-01-27T02:48:43;100156.06;;;0.84;100.00
14253;BME280;7210;51.502;10.722;2023-01-27T02:51:11;100157.06;;;0.83;100.00
14253;BME280;7210;51.502;10.722;2023-01-27T02:53:42;100159.94;;;0.80;100.00
14253;BME280;7210;51.502;10.722;2023-01-27T02:56:19;100169.09;;;0.84;100.00
14253;BME280;7210;51.502;10.722;2023-01-27T02:58:47;100172.06;;;0.89;100.00
14253;BME280;7210;51.502;10.722;2023-01-27T03:01:20;100167.66;;;0.90;100.00
14253;BME280;7210;51.502;10.722;2023-01-27T03:03:53;100168.78;;;0.87;100.00
14253;BME280;7210;51.502;10.722;2023-01-27T03:06:20;100174.81;;;0.88;100.00
14253;BME280;7210;51.502;10.722;2023-01-27T03:11:17;100179.25;;;0.95;100.00
14253;BME280;7210;51.502;10.722;2023-01-27T03:14:07;100173.38;;;0.93;100.00
14253;BME280;7210;51.502;10.722;2023-01-27T03:16:35;100168.19;;;0.93;100.00
14253;BME280;7210;51.502;10.722;2023-01-27T03:22:12;100161.94;;;0.86;100.00
14253;BME280;7210;51.502;10.722;2023-01-27T03:24:42;100164.91;;;0.91;100.00
14253;BME280;7210;51.502;10.722;2023-01-27T03:27:11;100166.56;;;0.92;100.00
14253;BME280;7210;51.502;10.722;2023-01-27T03:30:03;100169.81;;;0.94;100.00
14253;BME280;7210;51.502;10.722;2023-01-27T03:32:31;100166.22;;;0.95;100.00
14253;BME280;7210;51.502;10.722;2023-01-27T03:35:25;100165.88;;;0.90;100.00
14253;BME280;7210;51.502;10.722;2023-01-27T03:37:59;100171.91;;;0.91;100.00
14253;BME280;7210;51.502;10.722;2023-01-27T03:40:44;100175.31;;;0.91;100.00
14253;BME280;7210;51.502;10.722;2023-01-27T03:43:30;100170.13;;;0.91;100.00
14253;BME280;7210;51.502;10.722;2023-01-27T03:46:15;100175.00;;;0.94;100.00
14253;BME280;7210;51.502;10.722;2023-01-27T03:49:00;100170.78;;;0.93;100.00
14253;BME280;7210;51.502;10.722;2023-01-27T03:51:30;100161.84;;;0.96;100.00
14253;BME280;7210;51.502;10.722;2023-01-27T03:53:58;100158.75;;;0.92;100.00
14253;BME280;7210;51.502;10.722;2023-01-27T03:56:26;100164.91;;;0.91;100.00
14253;BME280;7210;51.502;10.722;2023-01-27T03:58:56;100163.28;;;0.90;100.00
14253;BME280;7210;51.502;10.722;2023-01-27T04:01:23;100162.31;;;0.91;100.00
14253;BME280;7210;51.502;10.722;2023-01-27T04:03:52;100159.06;;;0.89;100.00
14253;BME280;7210;51.502;10.722;2023-01-27T04:06:40;100163.28;;;0.90;100.00
14253;BME280;7210;51.502;10.722;2023-01-27T04:09:26;100154.78;;;0.88;100.00
14253;BME280;7210;51.502;10.722;2023-01-27T04:11:56;100149.91;;;0.85;100.00
14253;BME280;7210;51.502;10.722;2023-01-27T04:14:28;100147.97;;;0.87;100.00
14253;BME280;7210;51.502;10.722;2023-01-27T04:16:59;100145.34;;;0.87;100.00
14253;BME280;7210;51.502;10.722;2023-01-27T04:19:31;100147.97;;;0.87;100.00
14253;BME280;7210;51.502;10.722;2023-01-27T04:22:01;100148.66;;;0.89;100.00
14253;BME280;7210;51.502;10.722;2023-01-27T04:24:28;100144.09;;;0.91;100.00
14253;BME280;7210;51.502;10.722;2023-01-27T04:27:03;100140.84;;;0.89;100.00
14253;BME280;7210;51.502;10.722;2023-01-27T04:29:34;100146.03;;;0.89;100.00
14253;BME280;7210;51.502;10.722;2023-01-27T04:32:03;100149.25;;;0.83;100.00
14253;BME280;7210;51.502;10.722;2023-01-27T04:34:31;100158.03;;;0.82;100.00
14253;BME280;7210;51.502;10.722;2023-01-27T04:37:12;100114.53;;;0.57;100.00
14253;BME280;7210;51.502;10.722;2023-01-27T04:39:42;100138.91;;;0.74;100.00
14253;BME280;7210;51.502;10.722;2023-01-27T04:42:10;100154.59;;;0.82;100.00
14253;BME280;7210;51.502;10.722;2023-01-27T04:44:39;100152.81;;;0.82;100.00
14253;BME280;7210;51.502;10.722;2023-01-27T04:47:06;100160.31;;;0.85;100.00
14253;BME280;7210;51.502;10.722;2023-01-27T04:49:34;100164.09;;;0.91;100.00
14253;BME280;7210;51.502;10.722;2023-01-27T04:52:12;100171.75;;;0.92;100.00
14253;BME280;7210;51.502;10.722;2023-01-27T04:54:40;100171.44;;;0.95;100.00
14253;BME280;7210;51.502;10.722;2023-01-27T04:57:12;100164.31;;;0.97;100.00
14253;BME280;7210;51.502;10.722;2023-01-27T04:59:44;100169.81;;;0.94;100.00
14253;BME280;7210;51.502;10.722;2023-01-27T05:02:11;100169.81;;;0.94;100.00
14253;BME280;7210;51.502;10.722;2023-01-27T05:04:58;100170.47;;;0.96;100.00
14253;BME280;7210;51.502;10.722;2023-01-27T05:07:37;100181.09;;;1.03;100.00
14253;BME280;7210;51.502;10.722;2023-01-27T05:10:06;100173.06;;;0.96;100.00
14253;BME280;7210;51.502;10.722;2023-01-27T05:12:33;100182.16;;;0.92;100.00
14253;BME280;7210;51.502;10.722;2023-01-27T05:15:02;100175.31;;;0.91;100.00
14253;BME280;7210;51.502;10.722;2023-01-27T05:17:30;100173.69;;;0.90;100.00
14253;BME280;7210;51.502;10.722;2023-01-27T05:19:57;100180.81;;;0.88;100.00
14253;BME280;7210;51.502;10.722;2023-01-27T05:22:25;100177.28;;;0.89;100.00
14253;BME280;7210;51.502;10.722;2023-01-27T05:24:52;100185.72;;;0.91;100.00
14253;BME280;7210;51.502;10.722;2023-01-27T05:27:30;100178.06;;;0.90;100.00
14253;BME280;7210;51.502;10.722;2023-01-27T05:29:58;100173.97;;;0.87;100.00
14253;BME280;7210;51.502;10.722;2023-01-27T05:32:26;100180.16;;;0.86;100.00
14253;BME280;7210;51.502;10.722;2023-01-27T05:34:54;100177.56;;;0.86;100.00
14253;BME280;7210;51.502;10.722;2023-01-27T05:37:22;100181.13;;;0.85;100.00
14253;BME280;7210;51.502;10.722;2023-01-27T05:39:49;100188.94;;;0.85;100.00
14253;BME280;7210;51.502;10.722;2023-01-27T05:42:16;100182.75;;;0.86;100.00
14253;BME280;7210;51.502;10.722;2023-01-27T05:44:43;100186.47;;;0.84;100.00
14253;BME280;7210;51.502;10.722;2023-01-27T05:47:10;100201.03;;;0.94;100.00
14253;BME280;7210;51.502;10.722;2023-01-27T05:49:39;100207.59;;;0.98;100.00
14253;BME280;7210;51.502;10.722;2023-01-27T05:52:06;100203.34;;;0.97;100.00
14253;BME280;7210;51.502;10.722;2023-01-27T05:54:33;100203.34;;;0.97;100.00
14253;BME280;7210;51.502;10.722;2023-01-27T05:57:00;100206.25;;;0.94;100.00
14253;BME280;7210;51.502;10.722;2023-01-27T05:59:30;100218.97;;;0.97;100.00
14253;BME280;7210;51.502;10.722;2023-01-27T06:01:58;100207.59;;;0.98;100.00
14253;BME280;7210;51.502;10.722;2023-01-27T06:04:31;100218.00;;;0.98;100.00
14253;BME280;7210;51.502;10.722;2023-01-27T06:06:59;100213.38;;;0.92;100.00
14253;BME280;7210;51.502;10.722;2023-01-27T06:09:26;100222.16;;;0.91;100.00
14253;BME280;7210;51.502;10.722;2023-01-27T06:11:53;100218.59;;;0.92;100.00
14253;BME280;7210;51.502;10.722;2023-01-27T06:14:20;100227.38;;;0.91;100.00
14253;BME280;7210;51.502;10.722;2023-01-27T06:16:48;100233.38;;;0.92;100.00
14253;BME280;7210;51.502;10.722;2023-01-27T06:19:15;100228.16;;;0.92;100.00
14253;BME280;7210;51.502;10.722;2023-01-27T06:21:42;100232.56;;;0.91;100.00
14253;BME280;7210;51.502;10.722;2023-01-27T06:24:20;100226.03;;;0.87;100.00
14253;BME280;7210;51.502;10.722;2023-01-27T06:26:49;100234.53;;;0.89;100.00
14253;BME280;7210;51.502;10.722;2023-01-27T06:29:16;100236.94;;;0.91;100.00
14253;BME280;7210;51.502;10.722;2023-01-27T06:31:44;100239.72;;;0.89;100.00
14253;BME280;7210;51.502;10.722;2023-01-27T06:34:11;100244.25;;;0.87;100.00
14253;BME280;7210;51.502;10.722;2023-01-27T06:36:42;100249.38;;;0.97;100.00
14253;BME280;7210;51.502;10.722;2023-01-27T06:39:10;100244.69;;;1.00;100.00
14253;BME280;7210;51.502;10.722;2023-01-27T06:41:39;100241.34;;;0.90;100.00
14253;BME280;7210;51.502;10.722;2023-01-27T06:44:06;100245.28;;;0.94;100.00
14253;BME280;7210;51.502;10.722;2023-01-27T06:46:37;100247.28;;;1.00;100.00
14253;BME280;7210;51.502;10.722;2023-01-27T06:49:10;100242.09;;;1.00;100.00
14253;BME280;7210;51.502;10.722;2023-01-27T06:51:38;100248.84;;;0.93;100.00
14253;BME280;7210;51.502;10.722;2023-01-27T06:54:05;100245.72;;;0.90;100.00
14253;BME280;7210;51.502;10.722;2023-01-27T06:56:32;100250.94;;;0.90;100.00
14253;BME280;7210;51.502;10.722;2023-01-27T06:59:01;100248.47;;;0.88;100.00
14253;BME280;7210;51.502;10.722;2023-01-27T07:01:30;100247.22;;;0.92;100.00
14253;BME280;7210;51.502;10.722;2023-01-27T07:03:59;100247.59;;;0.97;100.00
14253;BME280;7210;51.502;10.722;2023-01-27T07:06:26;100248.72;;;0.95;100.00
14253;BME280;7210;51.502;10.722;2023-01-27T07:08:53;100251.75;;;0.90;100.00
14253;BME280;7210;51.502;10.722;2023-01-27T07:11:21;100252.03;;;0.87;100.00
14253;BME280;7210;51.502;10.722;2023-01-27T07:13:48;100257.25;;;0.87;100.00
14253;BME280;7210;51.502;10.722;2023-01-27T07:16:20;100254.00;;;0.85;100.00
14253;BME280;7210;51.502;10.722;2023-01-27T07:18:47;100252.34;;;0.84;100.00
14253;BME280;7210;51.502;10.722;2023-01-27T07:21:15;100257.56;;;0.84;100.00
14253;BME280;7210;51.502;10.722;2023-01-27T07:23:42;100263.56;;;0.85;100.00
14253;BME280;7210;51.502;10.722;2023-01-27T07:26:09;100272.88;;;0.87;100.00
14253;BME280;7210;51.502;10.722;2023-01-27T07:28:37;100268.03;;;0.92;100.00
14253;BME280;7210;51.502;10.722;2023-01-27T07:31:06;100272.94;;;0.95;100.00
14253;BME280;7210;51.502;10.722;2023-01-27T07:33:35;100278.53;;;1.00;100.00
14253;BME280;7210;51.502;10.722;2023-01-27T07:36:05;100289.59;;;1.02;100.00
14253;BME280;7210;51.502;10.722;2023-01-27T07:38:34;100287.38;;;1.07;100.00
14253;BME280;7210;51.502;10.722;2023-01-27T07:41:03;100289.38;;;1.13;100.00
14253;BME280;7210;51.502;10.722;2023-01-27T07:43:31;100289.06;;;1.16;100.00
14253;BME280;7210;51.502;10.722;2023-01-27T07:45:58;100296.88;;;1.16;100.00
14253;BME280;7210;51.502;10.722;2023-01-27T07:48:25;100292.06;;;1.21;100.00
14253;BME280;7210;51.502;10.722;2023-01-27T07:50:53;100302.16;;;1.24;100.00
14253;BME280;7210;51.502;10.722;2023-01-27T07:53:21;100310.63;;;1.26;100.00
14253;BME280;7210;51.502;10.722;2023-01-27T07:55:48;100310.34;;;1.29;100.00
14253;BME280;7210;51.502;10.722;2023-01-27T07:58:15;100304.53;;;1.35;100.00
14253;BME280;7210;51.502;10.722;2023-01-27T08:00:48;100308.09;;;1.34;100.00
14253;BME280;7210;51.502;10.722;2023-01-27T08:03:22;100311.59;;;1.43;100.00
14253;BME280;7210;51.502;10.722;2023-01-27T08:05:50;100316.72;;;1.52;100.00
14253;BME280;7210;51.502;10.722;2023-01-27T08:08:19;100314.78;;;1.54;100.00
14253;BME280;7210;51.502;10.722;2023-01-27T08:10:46;100320.38;;;1.59;100.00
14253;BME280;7210;51.502;10.722;2023-01-27T08:13:16;100323.50;;;1.63;100.00
14253;BME280;7210;51.502;10.722;2023-01-27T08:15:43;100325.63;;;1.67;100.00
14253;BME280;7210;51.502;10.722;2023-01-27T08:18:10;100325.38;;;1.78;100.00
14253;BME280;7210;51.502;10.722;2023-01-27T08:20:37;100326.34;;;1.77;100.00
14253;BME280;7210;51.502;10.722;2023-01-27T08:23:04;100336.16;;;1.83;100.00
14253;BME280;7210;51.502;10.722;2023-01-27T08:25:33;100335.25;;;1.92;100.00
14253;BME280;7210;51.502;10.722;2023-01-27T08:28:00;100331.34;;;1.96;100.00
14253;BME280;7210;51.502;10.722;2023-01-27T08:30:27;100321.25;;;1.93;100.00
14253;BME280;7210;51.502;10.722;2023-01-27T08:32:54;100335.94;;;2.02;100.00
14253;BME280;7210;51.502;10.722;2023-01-27T08:35:21;100327.66;;;2.07;100.00
14253;BME280;7210;51.502;10.722;2023-01-27T08:37:49;100326.53;;;2.09;100.00
14253;BME280;7210;51.502;10.722;2023-01-27T08:40:17;100328.03;;;2.12;100.00
14253;BME280;7210;51.502;10.722;2023-01-27T08:42:45;100327.56;;;2.16;100.00
14253;BME280;7210;51.502;10.722;2023-01-27T08:45:15;100320.09;;;2.21;100.00
14253;BME280;7210;51.502;10.722;2023-01-27T08:47:42;100319.47;;;2.27;100.00
14253;BME280;7210;51.502;10.722;2023-01-27T08:50:19;100318.84;;;2.33;100.00
14253;BME280;7210;51.502;10.722;2023-01-27T08:52:46;100316.88;;;2.35;100.00
14253;BME280;7210;51.502;10.722;2023-01-27T08:55:13;100297.66;;;2.36;100.00
14253;BME280;7210;51.502;10.722;2023-01-27T08:57:40;100308.00;;;2.54;100.00
14253;BME280;7210;51.502;10.722;2023-01-27T09:00:10;100296.78;;;2.61;100.00
14253;BME280;7210;51.502;10.722;2023-01-27T09:02:43;100296.44;;;2.64;100.00
14253;BME280;7210;51.502;10.722;2023-01-27T09:05:10;100277.84;;;2.59;100.00
14253;BME280;7210;51.502;10.722;2023-01-27T09:07:37;100274.94;;;2.70;100.00
14253;BME280;7210;51.502;10.722;2023-01-27T09:10:05;100267.91;;;2.71;100.00
14253;BME280;7210;51.502;10.722;2023-01-27T09:12:33;100262.06;;;2.77;100.00
14253;BME280;7210;51.502;10.722;2023-01-27T09:15:01;100267.28;;;2.85;100.00
14253;BME280;7210;51.502;10.722;2023-01-27T09:17:32;100255.72;;;2.95;100.00
14253;BME280;7210;51.502;10.722;2023-01-27T09:19:59;100250.84;;;3.00;100.00
14253;BME280;7210;51.502;10.722;2023-01-27T09:22:26;100250.19;;;3.06;100.00
14253;BME280;7210;51.502;10.722;2023-01-27T09:24:53;100249.53;;;3.04;100.00
14253;BME280;7210;51.502;10.722;2023-01-27T09:27:26;100244.97;;;3.06;100.00
14253;BME280;7210;51.502;10.722;2023-01-27T09:29:54;100238.78;;;3.15;100.00
14253;BME280;7210;51.502;10.722;2023-01-27T09:32:21;100241.38;;;3.07;100.00
14253;BME280;7210;51.502;10.722;2023-01-27T09:34:49;100229.94;;;3.00;100.00
14253;BME280;7210;51.502;10.722;2023-01-27T09:37:17;100230.25;;;2.97;100.00
14253;BME280;7210;51.502;10.722;2023-01-27T09:39:49;100225.03;;;2.97;100.00
14253;BME280;7210;51.502;10.722;2023-01-27T09:42:45;100221.28;;;3.00;100.00
14253;BME280;7210;51.502;10.722;2023-01-27T09:45:34;100215.75;;;3.03;100.00
14253;BME280;7210;51.502;10.722;2023-01-27T09:48:35;100220.31;;;3.01;100.00
14253;BME280;7210;51.502;10.722;2023-01-27T09:51:18;100218.38;;;3.03;100.00
14253;BME280;7210;51.502;10.722;2023-01-27T09:54:37;100214.28;;;3.16;100.00
14253;BME280;7210;51.502;10.722;2023-01-27T09:57:17;100215.25;;;3.23;100.00
14253;BME280;7210;51.502;10.722;2023-01-27T10:00:20;100210.69;;;3.25;100.00
14253;BME280;7210;51.502;10.722;2023-01-27T10:03:26;100216.88;;;3.32;100.00
14253;BME280;7210;51.502;10.722;2023-01-27T10:10:04;100213.56;;;3.62;100.00
14253;BME280;7210;51.502;10.722;2023-01-27T10:12:56;100205.66;;;3.86;100.00
14253;BME280;7210;51.502;10.722;2023-01-27T10:15:45;100202.03;;;3.87;100.00
14253;BME280;7210;51.502;10.722;2023-01-27T10:18:33;100191.53;;;3.95;100.00
14253;BME280;7210;51.502;10.722;2023-01-27T10:21:15;100179.19;;;3.81;100.00
14253;BME280;7210;51.502;10.722;2023-01-27T10:23:58;100171.63;;;3.94;100.00
14253;BME280;7210;51.502;10.722;2023-01-27T10:26:38;100183.13;;;4.15;100.00
14253;BME280;7210;51.502;10.722;2023-01-27T10:29:22;100172.75;;;4.22;100.00
14253;BME280;7210;51.502;10.722;2023-01-27T10:31:57;100169.31;;;4.29;100.00
14253;BME280;7210;51.502;10.722;2023-01-27T10:34:33;100168.44;;;4.37;100.00
14253;BME280;7210;51.502;10.722;2023-01-27T10:37:19;100159.31;;;4.33;100.00
14253;BME280;7210;51.502;10.722;2023-01-27T10:39:59;100160.56;;;4.37;100.00
14253;BME280;7210;51.502;10.722;2023-01-27T10:42:38;100157.78;;;4.38;100.00
14253;BME280;7210;51.502;10.722;2023-01-27T10:45:33;100159.09;;;4.42;100.00
14253;BME280;7210;51.502;10.722;2023-01-27T10:48:28;100157.78;;;4.38;100.00
14253;BME280;7210;51.502;10.722;2023-01-27T10:51:04;100157.44;;;4.41;100.00
14253;BME280;7210;51.502;10.722;2023-01-27T10:53:45;100163.13;;;4.45;100.00
14253;BME280;7210;51.502;10.722;2023-01-27T10:56:33;100151.50;;;4.47;100.00
14253;BME280;7210;51.502;10.722;2023-01-27T10:59:11;100169.09;;;4.61;100.00
14253;BME280;7210;51.502;10.722;2023-01-27T11:01:45;100158.16;;;4.58;100.00
14253;BME280;7210;51.502;10.722;2023-01-27T11:04:32;100166.66;;;4.60;100.00
14253;BME280;7210;51.502;10.722;2023-01-27T11:07:03;100164.75;;;4.54;100.00
14253;BME280;7210;51.502;10.722;2023-01-27T11:09:35;100155.91;;;4.55;100.00
14253;BME280;7210;51.502;10.722;2023-01-27T11:12:09;100159.44;;;4.62;100.00
14253;BME280;7210;51.502;10.722;2023-01-27T11:14:45;100146.22;;;4.55;100.00
14253;BME280;7210;51.502;10.722;2023-01-27T11:17:22;100152.56;;;4.61;100.00
14253;BME280;7210;51.502;10.722;2023-01-27T11:20:00;100144.06;;;4.59;100.00
14253;BME280;7210;51.502;10.722;2023-01-27T11:22:37;100149.91;;;4.69;100.00
14253;BME280;7210;51.502;10.722;2023-01-27T11:25:23;100138.16;;;4.65;100.00
14253;BME280;7210;51.502;10.722;2023-01-27T11:28:04;100141.75;;;4.64;100.00
14253;BME280;7210;51.502;10.722;2023-01-27T11:30:41;100145.94;;;4.73;100.00
14253;BME280;7210;51.502;10.722;2023-01-27T11:33:20;100145.56;;;4.76;100.00
14253;BME280;7210;51.502;10.722;2023-01-27T11:35:50;100147.50;;;4.82;100.00
14253;BME280;7210;51.502;10.722;2023-01-27T11:38:22;100153.59;;;4.97;100.00
14253;BME280;7210;51.502;10.722;2023-01-27T11:40:52;100149.28;;;5.04;100.00
14253;BME280;7210;51.502;10.722;2023-01-27T11:43:23;100147.75;;;5.09;100.00
14253;BME280;7210;51.502;10.722;2023-01-27T11:46:00;100137.09;;;5.11;100.00
14253;BME280;7210;51.502;10.722;2023-01-27T11:48:36;100120.91;;;5.07;100.00
14253;BME280;7210;51.502;10.722;2023-01-27T11:51:14;100127.25;;;5.13;100.00
14253;BME280;7210;51.502;10.722;2023-01-27T11:53:47;100124.00;;;5.11;100.00
14253;BME280;7210;51.502;10.722;2023-01-27T11:56:18;100136.19;;;5.18;100.00
14253;BME280;7210;51.502;10.722;2023-01-27T11:58:55;100130.84;;;5.12;100.00
14253;BME280;7210;51.502;10.722;2023-01-27T12:01:42;100137.31;;;5.24;100.00
14253;BME280;7210;51.502;10.722;2023-01-27T12:04:20;100129.97;;;5.34;100.00
14253;BME280;7210;51.502;10.722;2023-01-27T12:06:52;100117.88;;;5.33;100.00
14253;BME280;7210;51.502;10.722;2023-01-27T12:09:34;100114.53;;;5.39;100.00
14253;BME280;7210;51.502;10.722;2023-01-27T12:12:21;100112.53;;;5.41;100.00
14253;BME280;7210;51.502;10.722;2023-01-27T12:14:51;100126.56;;;5.48;100.00
14253;BME280;7210;51.502;10.722;2023-01-27T12:17:30;100118.69;;;5.48;99.56
14253;BME280;7210;51.502;10.722;2023-01-27T12:20:04;100124.84;;;5.55;99.62
14253;BME280;7210;51.502;10.722;2023-01-27T12:22:36;100113.34;;;5.56;98.66
14253;BME280;7210;51.502;10.722;2023-01-27T12:25:12;100115.31;;;5.54;98.34
14253;BME280;7210;51.502;10.722;2023-01-27T12:27:48;100122.28;;;5.61;98.71
14253;BME280;7210;51.502;10.722;2023-01-27T12:30:21;100107.81;;;5.51;97.79
14253;BME280;7210;51.502;10.722;2023-01-27T12:32:54;100096.53;;;5.36;97.67
14253;BME280;7210;51.502;10.722;2023-01-27T12:35:31;100113.72;;;5.38;97.49
14253;BME280;7210;51.502;10.722;2023-01-27T12:38:05;100117.16;;;5.39;97.25
14253;BME280;7210;51.502;10.722;2023-01-27T12:40:57;100112.63;;;5.33;97.32
14253;BME280;7210;51.502;10.722;2023-01-27T12:43:25;100116.69;;;5.35;97.06
14253;BME280;7210;51.502;10.722;2023-01-27T12:46:19;100123.91;;;5.33;97.31
14253;BME280;7210;51.502;10.722;2023-01-27T12:48:49;100127.66;;;5.39;96.88
14253;BME280;7210;51.502;10.722;2023-01-27T12:51:21;100132.69;;;5.40;97.35
14253;BME280;7210;51.502;10.722;2023-01-27T12:53:54;100143.75;;;5.50;96.93
14253;BME280;7210;51.502;10.722;2023-01-27T12:56:39;100134.41;;;5.48;96.78
14253;BME280;7210;51.502;10.722;2023-01-27T12:59:13;100122.75;;;5.36;96.61
14253;BME280;7210;51.502;10.722;2023-01-27T13:01:43;100130.34;;;5.31;96.36
14253;BME280;7210;51.502;10.722;2023-01-27T13:04:27;100134.78;;;5.30;96.69
14253;BME280;7210;51.502;10.722;2023-01-27T13:07:07;100158.72;;;5.42;96.68
14253;BME280;7210;51.502;10.722;2023-01-27T13:09:47;100173.38;;;5.51;96.58
14253;BME280;7210;51.502;10.722;2023-01-27T13:12:21;100166.50;;;5.50;96.01
14253;BME280;7210;51.502;10.722;2023-01-27T13:14:52;100150.25;;;5.40;95.42
14253;BME280;7210;51.502;10.722;2023-01-27T13:17:29;100155.03;;;5.36;95.89
14253;BME280;7210;51.502;10.722;2023-01-27T13:20:14;100173.28;;;5.44;95.63
14253;BME280;7210;51.502;10.722;2023-01-27T13:22:53;100174.28;;;5.43;95.61
14253;BME280;7210;51.502;10.722;2023-01-27T13:25:37;100173.84;;;5.40;95.49
14253;BME280;7210;51.502;10.722;2023-01-27T13:28:13;100158.53;;;5.29;95.18
14253;BME280;7210;51.502;10.722;2023-01-27T13:30:48;100171.56;;;5.37;95.27